• Join FlightAware (Why Join?)
  • Login
  • US Flag 
04:44PM EDT


 

Airport Tracker/Info


-or-


 

Live Flight TrackerFlight Track Log ✈ N508QS ✈ 20-May-2013 ✈ CYQG - KBED

Flight Track Log - Related Links

Times and Time Zones

All times are in EDT time to prevent confusion due to time zone crossing. See the N508QS flight status page for this flight to view local times or setup timezone preferences in your user account.

Time Position Orientation Groundspeed Altitude Reporting Facility
EDT Latitude Longitude Course Direction KTS MPH feet Rate Location/Type
05:54PM 42.2706 -82.9739 176° South 192 221 1,600  Level Cleveland Center
05:54PM 42.2311 -82.9697 176° South 192 221 3,100 2,760 Climbing Cleveland Center
05:55PM 42.1867 -82.9006 131° Southeast 278 320 6,400 3,600 Climbing Cleveland Center
05:57PM 42.1928 -82.7972 85° East 334 384 10,500 3,060 Climbing Cleveland Center
05:59PM 42.3117 -82.5683 55° Northeast 390 449 16,200 3,000 Climbing Cleveland Center
06:00PM 42.3639 -82.4378 62° Northeast 377 434 20,000 3,720 Climbing Cleveland Center
06:01PM 42.3622 -82.2806 91° East 384 442 23,700 3,540 Climbing Cleveland Center
06:02PM 42.3561 -82.1258 93° East 389 448 27,100 3,480 Climbing Cleveland Center
06:03PM 42.3500 -81.9486 93° East 423 487 30,700 2,820 Climbing Cleveland Center
06:04PM 42.3394 -81.7797 95° East 429 494 32,800 1,140 Climbing Cleveland Center
06:05PM 42.3306 -81.6083 94° East 445 512 33,000 60 Climbing Cleveland Center
06:06PM 42.3236 -81.4342 93° East 451 519 33,000  Level Cleveland Center
06:07PM 42.3144 -81.2569 94° East 468 539 33,000  Level Cleveland Center
06:08PM 42.2986 -81.0828 97° East 473 544 33,000 420 Level Cleveland Center
06:09PM 42.2681 -80.9058 103° East 473 544 33,900 1,500 Climbing Cleveland Center
06:10PM 42.2475 -80.7317 99° East 467 537 36,100 2,100 Climbing Cleveland Center
06:11PM 42.2517 -80.5775 88° East 467 537 38,200 1,440 Climbing Cleveland Center
06:12PM 42.2725 -80.4036 81° East 469 540 39,000 360 Climbing Cleveland Center
06:13PM 42.2867 -80.2183 84° East 476 548 39,000  Level Cleveland Center
06:14PM 42.3067 -80.0414 81° East 482 555 39,000  Level Cleveland Center
06:15PM 42.3286 -79.8444 81° East 482 555 39,000  Level Cleveland Center
06:16PM 42.3461 -79.6644 82° East 482 555 39,000  Level Cleveland Center
06:17PM 42.3611 -79.4900 83° East 476 548 39,000  Level Cleveland Center
06:18PM 42.3783 -79.3128 82° East 476 548 39,000  Level Cleveland Center
06:19PM 42.3928 -79.1325 84° East 476 548 39,000  Level Cleveland Center
06:20PM 42.4092 -78.9550 83° East 481 554 39,000  Level Cleveland Center
06:21PM 42.4272 -78.7772 82° East 481 554 39,000  Level Cleveland Center
06:22PM 42.4431 -78.5967 83° East 481 554 39,000  Level Cleveland Center
06:23PM 42.4567 -78.4189 84° East 481 554 39,000  Level Cleveland Center
06:24PM 42.4697 -78.2411 84° East 481 554 39,000  Level Cleveland Center
06:25PM 42.4847 -78.0633 83° East 481 554 39,000  Level Cleveland Center
06:26PM 42.4975 -77.8825 84° East 481 554 39,000  Level Cleveland Center
06:27PM 42.5122 -77.7242 83° East 481 554 39,000  Level Cleveland Center
06:28PM 42.5244 -77.5403 85° East 481 554 39,000  Level Cleveland Center
06:30PM 42.5594 -77.0919 84° East 487 560 39,000  Level Boston Center
06:31PM 42.5708 -76.9122 85° East 482 555 39,000  Level Boston Center
06:32PM 42.5842 -76.7269 84° East 482 555 39,000  Level Boston Center
06:33PM 42.5969 -76.5500 84° East 476 548 39,000  Level Boston Center
06:34PM 42.6036 -76.3672 87° East 476 548 39,000  Level Boston Center
06:35PM 42.6033 -76.1864 90° East 476 548 39,000  Level Boston Center
06:36PM 42.5967 -76.0056 93° East 476 548 39,000 -180 Level Boston Center
06:37PM 42.5542 -75.8311 108° East 476 548 38,700 -660 Descending Boston Center
06:38PM 42.5278 -75.6578 102° East 476 548 37,700 -1,260 Descending Boston Center
06:39PM 42.5325 -75.4917 88° East 475 547 36,200 -1,440 Descending Boston Center
06:40PM 42.5350 -75.3114 89° East 480 552 34,900 -1,320 Descending Boston Center
06:41PM 42.5386 -75.1650 88° East 480 552 33,600 -1,620 Descending Boston Center
06:42PM 42.5419 -74.9342 89° East 487 560 31,700 -1,740 Descending Boston Center
06:43PM 42.5436 -74.7481 89° East 497 572 30,100 -1,380 Descending Boston Center
06:44PM 42.5472 -74.5622 88° East 492 566 29,000 -600 Descending Boston Center
06:45PM 42.5506 -74.3819 89° East 486 559 29,000  Level Boston Center
06:46PM 42.5514 -74.1989 90° East 486 559 29,000  Level Boston Center
06:47PM 42.5519 -74.0183 90° East 480 552 29,000  Level Boston Center
06:48PM 42.5522 -73.8325 90° East 480 552 29,000 -300 Level Boston Center
06:49PM 42.5544 -73.6492 89° East 475 547 28,500 -780 Descending Boston Center
06:50PM 42.5542 -73.4689 90° East 475 547 27,500 -1,080 Descending Boston Center
06:51PM 42.5558 -73.2800 89° East 483 556 26,400 -1,080 Descending Boston Center
06:52PM 42.5547 -73.0994 90° East 490 564 25,400 -1,020 Descending Boston Center
06:53PM 42.5556 -72.9219 90° East 477 549 24,400 -900 Descending Boston Center
06:54PM 42.5542 -72.7500 91° East 465 535 23,600 -1,800 Descending Boston Center
06:55PM 42.5461 -72.5839 94° East 453 521 20,800 -3,840 Descending Boston Center
06:56PM 42.5381 -72.4033 93° East 438 504 16,000 -4,260 Descending Boston Center
06:57PM 42.5336 -72.2597 92° East 432 497 12,300 -2,880 Descending Boston Center
06:58PM 42.5250 -72.1047 94° East 393 452 10,300 -1,620 Descending Boston Center
06:59PM 42.5203 -71.9950 93° East 336 387 9,200 -1,560 Descending Boston Center
07:00PM 42.5156 -71.8711 93° East 303 349 7,200 -1,800 Descending Boston Center
07:01PM 42.5194 -71.7725 87° East 287 330 5,700 -1,320 Descending Boston Center
07:02PM 42.5247 -71.6569 86° East 262 302 4,400 -960 Descending Boston Center
07:03PM 42.5333 -71.6000 78° East 222 255 4,100 -900 Descending KA90
07:04PM 42.5333 -71.5333 90° East 203 234 3,200 -660 Descending KA90
07:05PM 42.5167 -71.4500 105° East 219 252 2,800 -600 Descending KA90
07:06PM 42.5000 -71.3667 105° East 225 259 2,100 -480 Descending KA90
07:07PM 42.5000 -71.3000 90° East 185 213 1,900 -120 Descending KA90
07:08PM 42.5000 -71.2333 90° East 173 199 1,900 -360 Level KA90
07:09PM 42.4833 -71.2000 124° Southeast 156 180 1,300 -600 Descending KA90
07:10PM 42.4667 -71.2333 236° Southwest 141 162 700 5,040 Descending KA90
07:12PM 42.4431 -71.3317 252° West 102 117 19,000 5,220 Climbing Boston Center
07:13PM 42.4328 -71.3656 248° West 102 117 19,000  Level Boston Center
07:15PM 42.4667 -71.2833 36° Northeast  Level FlightAware Approximate
07:22PM 42.4699 -71.2890 36° Northeast  Level Estimated
07:23PM 42.4667 -71.2833 36° Northeast  Level FlightAware Approximate